Time;durP1;ratioP1;P1;durP2;ratioP2;P2;SDS_P1;SDS_P2;PMS_P1;PMS_P2;Temp;Humidity;BMP_temperature;BMP_pressure;BME280_temperature;BME280_humidity;BME280_pressure;Samples;Min_cycle;Max_cycle;Signal;HPM_P1;HPM_P2
2022/06/22 00:02:01;;;;;;;4.87;3.00;;;14.70;87.60;;;;;;5066789;28;20558;-58
2022/06/22 00:04:31;;;;;;;3.37;3.07;;;14.60;88.50;;;;;;5071565;28;20505;-60
2022/06/22 00:07:03;;;;;;;4.13;3.73;;;14.50;89.40;;;;;;5072591;28;20876;-59
2022/06/22 00:09:33;;;;;;;4.97;3.50;;;14.50;90.20;;;;;;5072626;28;20463;-60
2022/06/22 00:12:01;;;;;;;5.53;3.67;;;14.50;90.40;;;;;;5074055;28;20463;-59
2022/06/22 00:14:37;;;;;;;6.43;3.80;;;14.50;91.00;;;;;;5074904;28;20851;-59
2022/06/22 00:17:04;;;;;;;5.97;4.00;;;14.40;91.20;;;;;;5073500;28;20465;-60
2022/06/22 00:19:36;;;;;;;4.50;3.70;;;14.40;91.60;;;;;;5073315;28;20493;-59
2022/06/22 00:22:04;;;;;;;4.03;3.43;;;14.40;91.90;;;;;;5073429;28;20897;-60
2022/06/22 00:24:40;;;;;;;7.73;3.97;;;14.40;92.10;;;;;;5073647;28;20496;-60
2022/06/22 00:27:21;;;;;;;7.27;3.83;;;14.30;92.20;;;;;;5076621;28;20514;-60
2022/06/22 00:30:12;;;;;;;4.30;3.57;;;14.30;92.50;;;;;;5076633;28;20511;-60
2022/06/22 00:32:40;;;;;;;5.17;3.60;;;14.20;92.70;;;;;;5076749;28;20545;-59
2022/06/22 00:35:41;;;;;;;6.13;3.63;;;14.20;93.10;;;;;;5075613;28;20535;-60
2022/06/22 00:38:14;;;;;;;4.57;4.10;;;14.20;93.20;;;;;;5071472;28;20453;-59
2022/06/22 00:40:41;;;;;;;8.60;4.63;;;14.20;93.50;;;;;;5075974;28;20458;-59
2022/06/22 00:43:12;;;;;;;4.20;3.80;;;14.20;93.70;;;;;;5075304;28;20487;-59
2022/06/22 00:45:41;;;;;;;4.30;3.90;;;14.20;93.80;;;;;;5076873;28;20459;-60
2022/06/22 00:48:15;;;;;;;4.90;3.83;;;14.10;93.90;;;;;;5074985;28;20512;-58
2022/06/22 00:50:45;;;;;;;4.27;3.87;;;14.10;94.20;;;;;;5075762;28;20804;-59
2022/06/22 00:53:19;;;;;;;6.13;3.70;;;14.10;94.40;;;;;;5077100;28;20826;-58
2022/06/22 00:55:52;;;;;;;4.40;4.00;;;14.10;94.50;;;;;;5076069;28;20519;-59
2022/06/22 00:58:26;;;;;;;4.37;4.07;;;14.10;94.70;;;;;;5075716;28;20463;-60
2022/06/22 01:01:03;;;;;;;6.20;4.50;;;14.10;94.90;;;;;;5075989;28;20554;-58
2022/06/22 01:03:36;;;;;;;5.20;4.40;;;14.20;95.00;;;;;;5075905;28;20509;-59
2022/06/22 01:06:10;;;;;;;8.00;4.60;;;14.20;95.20;;;;;;5074769;28;20543;-59
2022/06/22 01:08:44;;;;;;;6.80;4.10;;;14.20;95.20;;;;;;5076835;28;20909;-59
2022/06/22 01:14:04;;;;;;;4.77;4.07;;;14.30;95.60;;;;;;5074787;28;20443;-60
2022/06/22 01:16:37;;;;;;;5.23;4.33;;;14.30;95.40;;;;;;5075918;28;20486;-59
2022/06/22 01:19:18;;;;;;;4.90;4.50;;;14.30;95.60;;;;;;5076270;28;20489;-59
2022/06/22 01:21:50;;;;;;;5.97;4.70;;;14.30;95.60;;;;;;5075911;28;20565;-60
2022/06/22 01:24:25;;;;;;;7.20;4.53;;;14.30;95.70;;;;;;5075467;28;20466;-60
2022/06/22 01:27:24;;;;;;;7.80;5.07;;;14.30;95.70;;;;;;5076010;28;20540;-59
2022/06/22 01:29:53;;;;;;;5.47;4.83;;;14.20;95.90;;;;;;5076390;28;20438;-59
2022/06/22 01:32:23;;;;;;;6.37;4.30;;;14.20;96.10;;;;;;5075274;28;20458;-60
2022/06/22 01:34:51;;;;;;;4.63;4.17;;;14.20;96.20;;;;;;5075418;28;20546;-59
2022/06/22 01:37:23;;;;;;;5.90;4.63;;;14.10;96.30;;;;;;5074194;28;20462;-58
2022/06/22 01:39:51;;;;;;;6.80;5.33;;;14.10;96.50;;;;;;5076012;28;20518;-58
2022/06/22 01:42:25;;;;;;;6.20;4.97;;;14.10;96.60;;;;;;5075244;28;20486;-58
2022/06/22 01:44:58;;;;;;;8.70;4.83;;;14.10;96.70;;;;;;5075016;28;20473;-58
2022/06/22 01:47:30;;;;;;;8.17;4.60;;;14.00;96.90;;;;;;5074854;28;20553;-58
2022/06/22 01:50:08;;;;;;;6.83;5.70;;;14.00;97.00;;;;;;5076140;28;20837;-58
2022/06/22 01:52:52;;;;;;;8.37;5.17;;;13.90;97.10;;;;;;5074737;28;20458;-59
2022/06/22 01:55:29;;;;;;;6.17;5.00;;;13.90;97.20;;;;;;5075168;28;20544;-58
2022/06/22 01:58:07;;;;;;;7.80;4.77;;;13.90;97.30;;;;;;5073624;28;20873;-60
2022/06/22 02:00:34;;;;;;;5.20;4.70;;;13.90;97.40;;;;;;5074642;28;20469;-59
2022/06/22 02:03:11;;;;;;;5.40;4.80;;;13.90;97.50;;;;;;5073929;28;20461;-59
2022/06/22 02:05:44;;;;;;;4.77;4.37;;;13.80;97.60;;;;;;5073891;28;20991;-60
2022/06/22 02:08:14;;;;;;;6.20;5.17;;;13.80;97.80;;;;;;5074609;28;20457;-58
2022/06/22 02:10:47;;;;;;;5.73;5.23;;;13.80;97.90;;;;;;5058692;28;20852;-59
2022/06/22 02:13:28;;;;;;;7.40;5.50;;;13.80;97.90;;;;;;5073511;28;20453;-57
2022/06/22 02:16:01;;;;;;;11.00;5.37;;;13.70;98.00;;;;;;5074447;28;20514;-59
2022/06/22 02:18:36;;;;;;;5.43;4.63;;;13.70;98.10;;;;;;5059240;28;20453;-58
2022/06/22 02:21:21;;;;;;;5.50;5.00;;;13.70;98.20;;;;;;5074275;28;20484;-58
2022/06/22 02:23:55;;;;;;;5.10;4.60;;;13.70;98.30;;;;;;5074168;28;20464;-60
2022/06/22 02:26:27;;;;;;;6.37;4.83;;;13.70;98.40;;;;;;5072614;28;20519;-59
2022/06/22 02:28:57;;;;;;;5.73;5.20;;;13.70;98.40;;;;;;5074671;28;20485;-58
2022/06/22 02:31:24;;;;;;;6.80;5.60;;;13.70;98.40;;;;;;5057105;28;20473;-59
2022/06/22 02:33:56;;;;;;;7.13;5.67;;;13.70;98.40;;;;;;5074454;28;20508;-59
2022/06/22 02:36:27;;;;;;;5.40;4.90;;;13.70;98.50;;;;;;5073870;28;20497;-59
2022/06/22 02:38:55;;;;;;;9.77;5.50;;;13.70;98.40;;;;;;5073693;28;20971;-59
2022/06/22 02:44:33;;;;;;;6.03;5.50;;;13.60;98.50;;;;;;5073544;28;20452;-58
2022/06/22 02:47:22;;;;;;;7.63;4.97;;;13.60;98.50;;;;;;5074039;28;20455;-58
2022/06/22 02:49:54;;;;;;;5.47;4.90;;;13.60;98.40;;;;;;5072326;28;20511;-58
2022/06/22 02:52:25;;;;;;;5.27;4.80;;;13.60;98.40;;;;;;5073581;28;20469;-59
2022/06/22 02:54:55;;;;;;;6.07;4.90;;;13.50;98.30;;;;;;5074170;28;20493;-59
2022/06/22 02:57:43;;;;;;;5.50;4.73;;;13.50;98.20;;;;;;5065873;28;20455;-58
2022/06/22 03:00:13;;;;;;;5.60;4.30;;;13.50;98.10;;;;;;5073304;28;20530;-59
2022/06/22 03:02:42;;;;;;;5.97;4.43;;;13.40;98.00;;;;;;5073263;28;20521;-59
2022/06/22 03:05:10;;;;;;;7.40;5.50;;;13.40;97.90;;;;;;5074304;28;20525;-59
2022/06/22 03:07:40;;;;;;;4.67;4.23;;;13.40;97.80;;;;;;5074106;28;20949;-60
2022/06/22 03:10:16;;;;;;;5.33;4.50;;;13.30;97.80;;;;;;5075848;28;20957;-60
2022/06/22 03:12:43;;;;;;;4.87;4.40;;;13.40;97.80;;;;;;5068776;28;20505;-60
2022/06/22 03:15:18;;;;;;;7.40;4.87;;;13.30;97.70;;;;;;5060057;28;21055;-59
2022/06/22 03:17:46;;;;;;;5.30;4.63;;;13.30;97.70;;;;;;5074340;28;20466;-59
2022/06/22 03:20:16;;;;;;;5.10;4.70;;;13.30;97.60;;;;;;5073855;28;20979;-60
2022/06/22 03:22:46;;;;;;;6.37;5.67;;;13.30;97.50;;;;;;5074539;28;20465;-60
2022/06/22 03:25:19;;;;;;;5.07;4.10;;;13.30;97.50;;;;;;5073445;28;20462;-59
2022/06/22 03:27:51;;;;;;;6.03;5.33;;;13.30;97.60;;;;;;5073055;28;20553;-59
2022/06/22 03:30:23;;;;;;;5.73;5.23;;;13.30;97.60;;;;;;5073306;28;20466;-58
2022/06/22 03:32:56;;;;;;;6.00;4.73;;;13.20;97.70;;;;;;5071508;28;20463;-57
2022/06/22 03:35:27;;;;;;;4.83;4.40;;;13.20;97.90;;;;;;5073687;28;20903;-59
2022/06/22 03:38:00;;;;;;;6.13;4.83;;;13.20;98.10;;;;;;5072715;28;20474;-60
2022/06/22 03:40:33;;;;;;;8.70;5.27;;;13.20;98.50;;;;;;5074269;28;20497;-60
2022/06/22 03:43:10;;;;;;;12.50;5.20;;;13.10;98.20;;;;;;5073293;28;20457;-60
2022/06/22 03:45:46;;;;;;;9.30;4.63;;;13.20;98.30;;;;;;5073460;28;20505;-60
2022/06/22 03:48:20;;;;;;;7.33;5.13;;;13.20;98.40;;;;;;5072822;28;20553;-60
2022/06/22 03:50:54;;;;;;;8.43;4.50;;;13.20;98.30;;;;;;5072254;28;20452;-60
2022/06/22 03:53:25;;;;;;;5.10;4.60;;;13.30;98.50;;;;;;5072581;28;20548;-59
2022/06/22 03:55:58;;;;;;;5.10;3.43;;;13.70;98.60;;;;;;5072948;28;20490;-59
2022/06/22 03:58:26;;;;;;;5.30;3.70;;;14.50;97.50;;;;;;5072903;28;20485;-59
2022/06/22 04:00:55;;;;;;;6.33;4.50;;;15.30;95.60;;;;;;5072750;28;20517;-61
2022/06/22 04:03:23;;;;;;;4.57;3.60;;;16.00;93.50;;;;;;5072109;28;20468;-61
2022/06/22 04:05:54;;;;;;;6.70;3.80;;;16.50;91.70;;;;;;5069362;28;20487;-61
2022/06/22 04:12:47;;;;;;;7.83;3.67;;;17.80;83.60;;;;;;5119305;27;20492;-59
2022/06/22 04:15:25;;;;;;;5.83;3.30;;;18.30;79.60;;;;;;5124724;27;20969;-59
2022/06/22 04:17:55;;;;;;;4.83;3.20;;;18.70;75.50;;;;;;5110593;28;20943;-58
2022/06/22 04:20:49;;;;;;;5.00;3.33;;;19.00;72.40;;;;;;5110946;28;20457;-59
2022/06/22 04:23:14;;;;;;;5.83;3.63;;;19.20;69.50;;;;;;5112543;28;20449;-58
2022/06/22 04:25:44;;;;;;;7.00;3.30;;;19.10;67.70;;;;;;5109672;28;21056;-58
2022/06/22 04:28:15;;;;;;;4.00;3.33;;;19.20;67.00;;;;;;5110801;28;20539;-59
2022/06/22 04:30:45;;;;;;;4.80;3.33;;;19.40;65.40;;;;;;5111754;28;20558;-59
2022/06/22 04:33:19;;;;;;;5.10;3.27;;;19.70;63.90;;;;;;5110760;28;20517;-58
2022/06/22 04:35:52;;;;;;;4.57;3.43;;;19.90;61.20;;;;;;5108726;28;20483;-59
2022/06/22 04:38:26;;;;;;;4.10;3.00;;;20.00;61.10;;;;;;5097508;28;20526;-58
2022/06/22 04:40:59;;;;;;;4.50;3.13;;;20.00;59.70;;;;;;5109155;28;20536;-60
2022/06/22 04:43:26;;;;;;;3.93;3.00;;;20.00;59.00;;;;;;5110290;28;20440;-59
2022/06/22 04:45:54;;;;;;;3.63;3.10;;;20.20;58.50;;;;;;5109936;28;20501;-59
2022/06/22 04:48:26;;;;;;;3.87;3.30;;;20.30;57.60;;;;;;5109346;28;20484;-59
2022/06/22 04:50:58;;;;;;;3.87;2.43;;;20.40;56.70;;;;;;5110233;28;20425;-58
2022/06/22 04:53:32;;;;;;;6.47;3.30;;;20.20;56.30;;;;;;5109694;28;20892;-59
2022/06/22 04:56:13;;;;;;;4.60;3.43;;;20.00;56.50;;;;;;5109598;28;20852;-59
2022/06/22 04:58:45;;;;;;;6.00;3.40;;;20.00;56.50;;;;;;5105205;28;20476;-58
2022/06/22 05:01:16;;;;;;;5.80;3.47;;;20.10;56.20;;;;;;5103624;28;20453;-59
2022/06/22 05:03:44;;;;;;;3.70;3.00;;;20.10;55.80;;;;;;5109874;28;20796;-60
2022/06/22 05:06:17;;;;;;;3.13;2.57;;;20.10;55.90;;;;;;5110139;28;20461;-60
2022/06/22 05:08:52;;;;;;;7.23;3.40;;;20.20;55.60;;;;;;5107624;28;20485;-59
2022/06/22 05:11:25;;;;;;;4.00;2.77;;;20.30;55.40;;;;;;5115693;22;20577;-57
2022/06/22 05:13:58;;;;;;;3.13;2.83;;;20.20;55.50;;;;;;5089077;28;20438;-56
2022/06/22 05:16:31;;;;;;;3.43;2.97;;;20.40;55.50;;;;;;5089670;28;20438;-57
2022/06/22 05:19:00;;;;;;;2.93;2.73;;;20.40;55.20;;;;;;5089138;28;20468;-56
2022/06/22 05:21:37;;;;;;;4.23;3.03;;;20.40;55.10;;;;;;5088203;28;20873;-56
2022/06/22 05:24:11;;;;;;;3.97;3.10;;;20.40;55.30;;;;;;5095597;28;20484;-57
2022/06/22 05:26:42;;;;;;;3.70;2.90;;;20.50;55.20;;;;;;5096382;28;20430;-57
2022/06/22 05:29:14;;;;;;;3.10;2.80;;;20.50;55.10;;;;;;5094560;28;20469;-57
2022/06/22 05:31:47;;;;;;;3.90;2.40;;;20.60;55.10;;;;;;5095548;28;20493;-57
2022/06/22 05:34:18;;;;;;;3.23;2.70;;;20.70;54.90;;;;;;5096010;28;20461;-57
2022/06/22 05:36:48;;;;;;;8.53;3.30;;;20.90;54.70;;;;;;5116168;28;20525;-57
2022/06/22 05:39:16;;;;;;;5.30;3.17;;;21.10;54.40;;;;;;5107036;28;20471;-57
2022/06/22 05:41:48;;;;;;;4.30;2.70;;;21.40;53.80;;;;;;5096033;28;20458;-56
2022/06/22 05:44:21;;;;;;;3.73;2.90;;;21.60;53.50;;;;;;5090903;28;20482;-57
2022/06/22 05:46:53;;;;;;;4.37;3.03;;;21.80;53.10;;;;;;5108301;28;20446;-57
2022/06/22 05:49:23;;;;;;;3.80;2.80;;;21.90;52.90;;;;;;5095096;28;20520;-58
2022/06/22 05:51:56;;;;;;;4.83;3.10;;;22.00;52.80;;;;;;5075032;28;20470;-57
2022/06/22 05:54:33;;;;;;;4.90;2.83;;;21.90;52.60;;;;;;5075433;28;20462;-58
2022/06/22 05:57:15;;;;;;;4.17;2.87;;;21.80;52.90;;;;;;5075122;28;20968;-56
2022/06/22 05:59:48;;;;;;;6.07;3.43;;;21.70;53.00;;;;;;5089943;28;20455;-57
2022/06/22 06:02:22;;;;;;;5.33;3.53;;;21.70;53.20;;;;;;5091715;28;20488;-58
2022/06/22 06:04:55;;;;;;;6.13;3.00;;;21.80;53.30;;;;;;5098866;28;20437;-57
2022/06/22 06:07:31;;;;;;;6.03;2.97;;;21.70;53.20;;;;;;5101625;28;20507;-57
2022/06/22 06:09:59;;;;;;;6.20;2.83;;;21.70;53.50;;;;;;5095264;28;20548;-58
2022/06/22 06:12:33;;;;;;;3.93;2.93;;;21.50;53.60;;;;;;5095884;28;20476;-58
2022/06/22 06:15:04;;;;;;;4.30;2.90;;;21.40;54.10;;;;;;5094111;28;20497;-57
2022/06/22 06:17:36;;;;;;;4.30;2.90;;;21.20;54.40;;;;;;5095560;28;20439;-55
2022/06/22 06:20:06;;;;;;;4.83;3.00;;;21.20;54.80;;;;;;5091982;28;20460;-57
2022/06/22 06:22:35;;;;;;;8.23;5.10;;;21.20;55.00;;;;;;5094060;28;20728;-57
2022/06/22 06:28:10;;;;;;;5.77;3.00;;;21.20;55.20;;;;;;5091260;28;20487;-57
2022/06/22 06:30:43;;;;;;;4.77;3.50;;;21.10;55.40;;;;;;5092202;28;20477;-58
2022/06/22 06:33:21;;;;;;;5.90;3.70;;;20.80;55.70;;;;;;5114565;28;20866;-57
2022/06/22 06:35:53;;;;;;;3.93;3.33;;;20.70;56.10;;;;;;5095604;28;20442;-57
2022/06/22 06:38:25;;;;;;;3.93;3.50;;;20.60;56.40;;;;;;5077985;28;20442;-55
2022/06/22 06:41:01;;;;;;;5.87;3.40;;;20.60;56.50;;;;;;5093577;28;20539;-57
2022/06/22 06:43:39;;;;;;;4.03;3.00;;;20.70;56.50;;;;;;5074394;28;20431;-57
2022/06/22 06:46:15;;;;;;;6.30;3.90;;;20.70;57.00;;;;;;5074885;28;20431;-56
2022/06/22 06:48:46;;;;;;;4.07;3.00;;;20.70;56.60;;;;;;5094751;28;20576;-57
2022/06/22 06:51:18;;;;;;;5.13;3.00;;;20.60;56.90;;;;;;5093154;28;21003;-56
2022/06/22 06:53:51;;;;;;;5.53;3.03;;;20.60;57.10;;;;;;5113678;28;20460;-57
2022/06/22 06:56:24;;;;;;;4.30;3.10;;;20.60;57.20;;;;;;5094760;28;20501;-58
2022/06/22 06:58:55;;;;;;;5.33;3.30;;;20.60;57.20;;;;;;5094049;28;20420;-56
2022/06/22 07:01:27;;;;;;;3.40;3.10;;;20.60;57.40;;;;;;5094032;28;20882;-56
2022/06/22 07:03:59;;;;;;;15.23;4.70;;;20.60;57.50;;;;;;5092219;28;20770;-57
2022/06/22 07:06:28;;;;;;;4.60;3.40;;;20.70;57.40;;;;;;5092959;28;20534;-58
2022/06/22 07:09:00;;;;;;;7.00;2.60;;;20.70;57.20;;;;;;5092926;28;20892;-57
2022/06/22 07:11:34;;;;;;;6.40;2.97;;;20.80;57.00;;;;;;5093944;28;20545;-57
2022/06/22 07:14:09;;;;;;;4.77;3.07;;;20.90;56.40;;;;;;5093327;28;20457;-57
2022/06/22 07:16:37;;;;;;;7.23;3.40;;;21.00;55.90;;;;;;5093572;28;20967;-57
2022/06/22 07:19:08;;;;;;;6.00;2.77;;;21.10;55.60;;;;;;5092234;28;20462;-58
2022/06/22 07:21:41;;;;;;;4.63;2.80;;;21.20;55.30;;;;;;5092682;28;20838;-59
2022/06/22 07:24:24;;;;;;;3.20;2.03;;;21.30;54.80;;;;;;5093542;28;20890;-58
2022/06/22 07:27:00;;;;;;;9.30;2.77;;;21.40;54.40;;;;;;5091417;28;20442;-58
2022/06/22 07:29:36;;;;;;;6.13;2.70;;;21.40;53.90;;;;;;5093239;28;20945;-57
2022/06/22 07:32:15;;;;;;;8.37;3.20;;;21.40;53.70;;;;;;5093130;28;20463;-58
2022/06/22 07:34:48;;;;;;;3.20;2.87;;;21.40;53.50;;;;;;5092140;28;20546;-58
2022/06/22 07:37:21;;;;;;;7.87;3.40;;;21.50;53.50;;;;;;5093174;28;20446;-58
2022/06/22 07:39:53;;;;;;;4.67;3.30;;;21.50;53.40;;;;;;5093297;28;20496;-58
2022/06/22 07:42:21;;;;;;;8.20;2.50;;;21.60;53.20;;;;;;5091698;28;20491;-58
2022/06/22 07:44:50;;;;;;;3.33;2.50;;;21.70;53.00;;;;;;5093441;28;20519;-58
2022/06/22 07:47:27;;;;;;;4.87;2.47;;;21.60;52.90;;;;;;5092088;28;20489;-57
2022/06/22 07:49:58;;;;;;;6.50;2.50;;;21.70;53.00;;;;;;5093300;28;20509;-58
2022/06/22 07:52:31;;;;;;;7.63;2.70;;;21.70;52.80;;;;;;5092199;28;20535;-58
2022/06/22 07:55:13;;;;;;;4.83;2.63;;;21.70;52.60;;;;;;5092521;28;21005;-59
2022/06/22 07:57:47;;;;;;;7.87;3.57;;;21.80;52.60;;;;;;5093343;28;20432;-59
2022/06/22 08:00:20;;;;;;;3.90;3.30;;;21.80;52.40;;;;;;5090701;28;20485;-58
2022/06/22 08:02:54;;;;;;;5.27;3.20;;;21.80;52.20;;;;;;5092645;28;20438;-58
2022/06/22 08:05:25;;;;;;;4.73;2.57;;;21.90;52.20;;;;;;5093482;28;20518;-59
2022/06/22 08:07:56;;;;;;;4.57;2.50;;;22.00;52.20;;;;;;5092213;28;20499;-59
2022/06/22 08:10:26;;;;;;;2.97;2.40;;;22.00;52.10;;;;;;5092689;28;20487;-58
2022/06/22 08:13:03;;;;;;;7.60;2.60;;;22.00;52.10;;;;;;5091949;28;20525;-57
2022/06/22 08:15:35;;;;;;;6.07;3.30;;;22.10;52.10;;;;;;5091770;28;20997;-58
2022/06/22 08:18:03;;;;;;;3.87;2.60;;;22.30;51.30;;;;;;5092591;28;20438;-58
2022/06/22 08:20:33;;;;;;;3.20;2.47;;;22.40;50.70;;;;;;5090524;28;20887;-57
2022/06/22 08:23:04;;;;;;;5.70;3.10;;;22.50;50.40;;;;;;5092507;28;20515;-58
2022/06/22 08:25:32;;;;;;;4.03;2.70;;;22.50;50.30;;;;;;5092658;28;20528;-57
2022/06/22 08:28:00;;;;;;;3.83;3.53;;;22.50;50.10;;;;;;5091851;28;20501;-56
2022/06/22 08:30:27;;;;;;;5.90;3.33;;;22.50;50.10;;;;;;5090189;28;20549;-57
2022/06/22 08:33:03;;;;;;;3.00;2.30;;;22.50;50.10;;;;;;5092963;28;20502;-57
2022/06/22 08:35:35;;;;;;;4.70;2.60;;;22.60;50.10;;;;;;5092363;28;20514;-58
2022/06/22 08:38:08;;;;;;;4.37;3.07;;;22.60;50.00;;;;;;5093204;28;20902;-58
2022/06/22 08:40:42;;;;;;;5.40;2.87;;;22.70;49.90;;;;;;5092120;28;20998;-59
2022/06/22 08:43:20;;;;;;;4.37;2.43;;;22.90;49.60;;;;;;5093015;28;20956;-58
2022/06/22 08:46:08;;;;;;;3.07;2.77;;;23.20;49.20;;;;;;5091635;28;20824;-57
2022/06/22 08:49:10;;;;;;;3.67;2.53;;;23.20;48.60;;;;;;5089876;28;20476;-58
2022/06/22 08:52:03;;;;;;;5.80;2.73;;;23.10;48.70;;;;;;5076357;28;20482;-57
2022/06/22 08:55:06;;;;;;;5.07;2.80;;;23.20;48.60;;;;;;5100433;28;20449;-58
2022/06/22 08:57:46;;;;;;;3.23;2.20;;;23.40;48.00;;;;;;5033354;28;20501;-58
2022/06/22 09:00:23;;;;;;;2.90;1.93;;;23.50;47.50;;;;;;5090023;28;20453;-59
2022/06/22 09:03:32;;;;;;;3.10;2.23;;;23.60;47.00;;;;;;5100742;28;20493;-56
2022/06/22 09:06:33;;;;;;;4.57;2.70;;;23.70;46.30;;;;;;5085918;28;20819;-58
2022/06/22 09:09:30;;;;;;;5.17;2.33;;;23.70;45.70;;;;;;5095234;28;20506;-59
2022/06/22 09:12:10;;;;;;;5.00;2.57;;;23.70;45.60;;;;;;5080963;28;20474;-57
2022/06/22 09:15:14;;;;;;;3.17;2.07;;;23.60;45.40;;;;;;5096299;28;20426;-57
2022/06/22 09:18:09;;;;;;;5.03;2.17;;;23.70;44.90;;;;;;5076602;28;20438;-56
2022/06/22 09:20:52;;;;;;;3.47;2.20;;;23.70;44.30;;;;;;5084928;28;20858;-58
2022/06/22 09:23:33;;;;;;;3.57;2.23;;;23.70;44.10;;;;;;5095094;28;20445;-56
2022/06/22 09:26:10;;;;;;;5.17;2.27;;;23.80;43.40;;;;;;5095976;28;20426;-58
2022/06/22 09:28:46;;;;;;;3.47;2.43;;;24.00;43.10;;;;;;5095750;28;20516;-57
2022/06/22 09:31:47;;;;;;;3.03;2.43;;;24.20;42.50;;;;;;5094243;28;20492;-57
2022/06/22 09:34:28;;;;;;;3.97;2.23;;;24.30;41.90;;;;;;5094202;28;20453;-58
2022/06/22 09:37:22;;;;;;;3.13;2.17;;;24.40;41.50;;;;;;5095334;28;20509;-56
2022/06/22 09:40:14;;;;;;;3.30;2.00;;;24.50;40.90;;;;;;5094961;28;20461;-57
2022/06/22 09:43:30;;;;;;;3.03;2.30;;;24.60;40.30;;;;;;5094878;28;20442;-56
2022/06/22 09:46:12;;;;;;;4.43;2.30;;;24.60;39.80;;;;;;5095900;28;20458;-55
2022/06/22 09:49:15;;;;;;;2.83;2.03;;;24.80;39.70;;;;;;5095598;28;20434;-57
2022/06/22 09:52:08;;;;;;;5.03;3.30;;;24.90;39.40;;;;;;5094168;28;20470;-57
2022/06/22 09:58:35;;;;;;;2.80;1.93;;;24.90;39.50;;;;;;5095877;28;20423;-56
2022/06/22 10:01:12;;;;;;;3.27;2.17;;;25.00;39.60;;;;;;5094473;28;20466;-56
2022/06/22 10:04:08;;;;;;;3.63;2.60;;;25.10;39.50;;;;;;5095346;28;20419;-57
2022/06/22 10:06:57;;;;;;;5.43;2.70;;;25.10;39.30;;;;;;5082293;28;20453;-55
2022/06/22 10:09:47;;;;;;;4.10;2.60;;;25.20;39.00;;;;;;5094383;28;20439;-56
2022/06/22 10:12:31;;;;;;;6.33;2.57;;;25.40;38.70;;;;;;5095041;28;20487;-57
2022/06/22 10:15:11;;;;;;;2.70;2.03;;;25.50;38.00;;;;;;5093140;28;20439;-55
2022/06/22 10:18:01;;;;;;;4.30;2.10;;;25.30;37.50;;;;;;5093499;28;20458;-56
2022/06/22 10:20:50;;;;;;;4.00;2.17;;;25.20;37.10;;;;;;5093465;28;20458;-56
2022/06/22 10:23:47;;;;;;;2.60;1.90;;;25.30;36.60;;;;;;5092472;28;20434;-57
2022/06/22 10:26:25;;;;;;;3.33;2.50;;;25.40;36.20;;;;;;5057354;28;20486;-56
2022/06/22 10:29:25;;;;;;;4.10;2.20;;;25.50;35.80;;;;;;5079741;28;20531;-56
2022/06/22 10:32:11;;;;;;;2.20;1.83;;;25.60;35.30;;;;;;5087274;28;20476;-57
2022/06/22 10:34:53;;;;;;;3.27;2.57;;;25.60;34.80;;;;;;5094062;28;20926;-57
2022/06/22 10:38:00;;;;;;;5.57;1.90;;;25.70;35.10;;;;;;5093564;28;20441;-56
2022/06/22 10:46:45;;;;;;;4.67;1.83;;;25.70;34.70;;;;;;5092766;28;20491;-57
2022/06/22 10:49:32;;;;;;;3.30;2.07;;;25.80;34.50;;;;;;5095814;28;20431;-57
2022/06/22 10:52:33;;;;;;;3.67;2.00;;;25.80;34.30;;;;;;5089129;27;21000;-57
2022/06/22 10:55:21;;;;;;;4.70;1.53;;;25.50;34.20;;;;;;5096282;28;20433;-59
2022/06/22 10:58:03;;;;;;;4.13;2.00;;;25.40;34.50;;;;;;5092728;28;20442;-58
2022/06/22 11:00:45;;;;;;;3.40;1.90;;;25.40;34.50;;;;;;5093029;28;20512;-57
2022/06/22 11:03:59;;;;;;;5.30;2.10;;;25.50;34.20;;;;;;5093224;28;20465;-58
2022/06/22 11:07:04;;;;;;;3.27;1.40;;;25.60;33.70;;;;;;5093432;28;20427;-56
2022/06/22 11:09:43;;;;;;;3.30;1.83;;;25.80;33.70;;;;;;5067855;28;20809;-57
2022/06/22 11:12:33;;;;;;;5.07;2.00;;;25.90;33.70;;;;;;5090673;28;21189;-58
2022/06/22 11:15:32;;;;;;;3.97;1.80;;;25.90;33.70;;;;;;5083541;28;20439;-57
2022/06/22 11:18:25;;;;;;;3.93;2.13;;;25.90;33.80;;;;;;5092652;28;20541;-57
2022/06/22 11:21:05;;;;;;;2.63;1.97;;;25.80;33.80;;;;;;5107657;28;20475;-59
2022/06/22 11:23:50;;;;;;;4.30;2.27;;;25.80;33.70;;;;;;5093104;28;20517;-57
2022/06/22 11:32:30;;;;;;;1.80;1.67;;;26.10;33.20;;;;;;5094276;28;20425;-56
2022/06/22 11:35:28;;;;;;;2.60;1.63;;;26.20;33.10;;;;;;5092691;28;20453;-56
2022/06/22 11:38:10;;;;;;;3.03;1.83;;;26.30;32.70;;;;;;5081742;28;20529;-56
2022/06/22 11:40:55;;;;;;;5.97;1.57;;;26.30;32.50;;;;;;5092988;28;20464;-57
2022/06/22 11:43:48;;;;;;;3.97;2.30;;;26.20;32.20;;;;;;5093187;28;20427;-56
2022/06/22 11:46:21;;;;;;;2.30;1.37;;;26.20;32.10;;;;;;5091194;28;20460;-56
2022/06/22 11:49:29;;;;;;;2.93;1.53;;;26.30;32.00;;;;;;5093661;28;20867;-57
2022/06/22 11:52:22;;;;;;;3.07;1.57;;;26.40;31.80;;;;;;5092027;28;20482;-57
2022/06/22 11:55:27;;;;;;;3.47;1.57;;;26.60;31.60;;;;;;5092906;28;20483;-56
2022/06/22 11:58:42;;;;;;;2.47;1.67;;;26.80;30.90;;;;;;5080585;28;20446;-57
2022/06/22 12:01:47;;;;;;;1.40;1.30;;;27.10;30.20;;;;;;5092193;28;20476;-57
2022/06/22 12:04:52;;;;;;;1.73;1.63;;;27.60;29.30;;;;;;5094057;28;20434;-56
2022/06/22 12:08:00;;;;;;;2.70;1.53;;;28.10;28.50;;;;;;5092223;28;20450;-57
2022/06/22 12:10:47;;;;;;;3.30;2.00;;;28.40;28.60;;;;;;5092958;28;20493;-55
2022/06/22 12:15:04;;;;;;;4.20;2.20;;;28.90;28.40;;;;;;5091079;28;20473;-57
2022/06/22 12:16:39;;;;;;;3.43;1.40;;;29.30;27.90;;;;;;5092409;28;20533;-57
2022/06/22 12:19:18;;;;;;;2.13;1.30;;;29.80;27.40;;;;;;5091831;28;20461;-57
2022/06/22 12:22:07;;;;;;;3.87;1.40;;;30.00;27.20;;;;;;5092537;28;20472;-56
2022/06/22 12:24:47;;;;;;;3.47;1.53;;;30.30;27.00;;;;;;5081683;28;21003;-56
2022/06/22 12:27:22;;;;;;;2.10;1.30;;;30.50;26.50;;;;;;5092308;28;20522;-56
2022/06/22 12:30:18;;;;;;;4.77;2.00;;;30.70;25.80;;;;;;5093116;28;20513;-55
2022/06/22 12:32:51;;;;;;;1.90;1.63;;;30.70;25.40;;;;;;5095531;28;20457;-56
2022/06/22 12:35:31;;;;;;;2.73;1.93;;;30.70;25.20;;;;;;5096715;28;20462;-56
2022/06/22 12:38:01;;;;;;;2.10;1.30;;;30.70;24.90;;;;;;5096449;28;20444;-56
2022/06/22 12:40:36;;;;;;;1.90;1.33;;;30.70;24.80;;;;;;5095261;28;20508;-56
2022/06/22 12:43:34;;;;;;;4.80;1.27;;;30.60;24.50;;;;;;5094724;28;20461;-56
2022/06/22 12:46:11;;;;;;;1.43;1.20;;;30.30;24.30;;;;;;5096293;28;20898;-56
2022/06/22 12:49:06;;;;;;;2.40;1.40;;;29.70;24.10;;;;;;5096193;28;20795;-56
2022/06/22 12:51:42;;;;;;;2.27;2.07;;;29.00;24.70;;;;;;5096066;28;21058;-56
2022/06/22 12:54:15;;;;;;;2.53;1.10;;;28.50;25.20;;;;;;5096141;28;20433;-56
2022/06/22 12:56:47;;;;;;;1.30;1.10;;;28.20;25.50;;;;;;5096213;28;20434;-56
2022/06/22 12:59:18;;;;;;;2.50;1.50;;;28.00;25.70;;;;;;5095688;28;20434;-56
2022/06/22 13:01:47;;;;;;;3.27;1.43;;;27.80;26.00;;;;;;5095976;28;20462;-55
2022/06/22 13:04:21;;;;;;;2.30;1.57;;;27.70;26.20;;;;;;5096266;28;20445;-56
2022/06/22 13:06:53;;;;;;;1.73;1.50;;;27.60;26.40;;;;;;5095694;28;20430;-56
2022/06/22 13:09:21;;;;;;;2.13;1.70;;;27.50;26.30;;;;;;5096154;28;20509;-57
2022/06/22 13:11:49;;;;;;;1.60;1.50;;;27.50;26.40;;;;;;5095446;28;20891;-55
2022/06/22 13:14:34;;;;;;;3.43;1.40;;;27.60;26.40;;;;;;5096122;28;20501;-57
2022/06/22 13:17:17;;;;;;;2.23;1.60;;;27.60;26.50;;;;;;5094597;28;20824;-57
2022/06/22 13:20:15;;;;;;;6.63;1.67;;;27.60;26.70;;;;;;5095942;28;20433;-57
2022/06/22 13:22:49;;;;;;;2.80;1.50;;;27.50;26.80;;;;;;5075222;28;20450;-56
2022/06/22 13:25:30;;;;;;;1.93;1.07;;;27.50;27.00;;;;;;5095823;28;20430;-58
2022/06/22 13:28:04;;;;;;;1.57;1.40;;;27.50;27.00;;;;;;5095499;28;20426;-57
2022/06/22 13:30:39;;;;;;;2.83;1.33;;;27.40;27.10;;;;;;5095715;28;20476;-59
2022/06/22 13:33:12;;;;;;;1.67;1.57;;;27.50;27.10;;;;;;5095668;28;20901;-57
2022/06/22 13:35:44;;;;;;;1.40;1.30;;;27.40;26.90;;;;;;5097503;28;20505;-58
2022/06/22 13:38:20;;;;;;;2.13;1.23;;;27.40;26.80;;;;;;5095838;28;20430;-56
2022/06/22 13:40:56;;;;;;;2.27;1.97;;;27.30;26.70;;;;;;5095593;28;20995;-57
2022/06/22 13:43:55;;;;;;;6.10;2.37;;;27.20;26.70;;;;;;5095812;28;20466;-57
2022/06/22 13:46:32;;;;;;;1.93;1.50;;;27.30;26.60;;;;;;5095463;28;20509;-57
2022/06/22 13:49:09;;;;;;;1.83;1.27;;;27.30;26.50;;;;;;5095683;28;20430;-56
2022/06/22 13:51:57;;;;;;;2.77;1.70;;;27.40;26.30;;;;;;5095238;28;20498;-58
2022/06/22 13:55:01;;;;;;;1.87;1.40;;;27.50;26.10;;;;;;5095423;28;20918;-57
2022/06/22 13:57:40;;;;;;;2.30;1.23;;;27.70;26.00;;;;;;5095186;28;20438;-56
2022/06/22 14:00:14;;;;;;;2.03;1.40;;;27.70;25.90;;;;;;5095039;28;20441;-58
2022/06/22 14:02:58;;;;;;;1.73;1.20;;;27.90;25.70;;;;;;5095051;28;20422;-58
2022/06/22 14:05:34;;;;;;;1.77;1.20;;;28.00;25.50;;;;;;5095347;28;20450;-56
2022/06/22 14:08:16;;;;;;;2.20;1.47;;;28.00;25.20;;;;;;5095091;28;20426;-58
2022/06/22 14:10:47;;;;;;;1.30;1.10;;;27.90;24.90;;;;;;5094947;28;20501;-56